Time;durP1;ratioP1;P1;durP2;ratioP2;P2;SDS_P1;SDS_P2;PMS_P1;PMS_P2;Temp;Humidity;BMP_temperature;BMP_pressure;BME280_temperature;BME280_humidity;BME280_pressure;Samples;Min_cycle;Max_cycle;Signal;HPM_P1;HPM_P2
2023/05/28 00:01:17;;;;;;;17.80;8.30;;;;;;;;;;106884;1277;22572;-84
2023/05/28 00:03:55;;;;;;;18.70;8.00;;;;;;;;;;106849;1277;22538;-80
2023/05/28 00:06:29;;;;;;;15.30;7.10;;;;;;;;;;106857;1277;22523;-84
2023/05/28 00:08:55;;;;;;;17.60;7.00;;;;;;;;;;106818;1268;25332;-81
2023/05/28 00:11:42;;;;;;;16.90;6.60;;;;;;;;;;106866;1278;25265;-78
2023/05/28 00:14:09;;;;;;;16.90;6.80;;;;;;;;;;106843;1278;24248;-80
2023/05/28 00:16:37;;;;;;;15.00;6.80;;;;;;;;;;106837;1278;24749;-76
2023/05/28 00:19:04;;;;;;;18.60;6.70;;;;;;;;;;106829;1260;22612;-81
2023/05/28 00:21:36;;;;;;;17.30;7.20;;;;;;;;;;106840;1277;22520;-83
2023/05/28 00:24:05;;;;;;;23.20;9.60;;;;;;;;;;106875;1277;22483;-83
2023/05/28 00:26:35;;;;;;;20.50;8.20;;;;;;;;;;106864;1277;22523;-83
2023/05/28 00:29:14;;;;;;;;;;;;;;;;;;;;;
2023/05/28 00:31:41;;;;;;;21.70;8.20;;;;;;;;;;106801;1277;23153;-81
2023/05/28 00:34:11;;;;;;;24.10;9.90;;;;;;;;;;106815;1278;22527;-84
2023/05/28 00:36:58;;;;;;;21.60;9.80;;;;;;;;;;106832;1278;24241;-83
2023/05/28 00:39:35;;;;;;;18.70;7.80;;;;;;;;;;106843;1258;22527;-81
2023/05/28 00:42:13;;;;;;;;;;;;;;;;;;;;;
2023/05/28 00:45:00;;;;;;;22.00;8.90;;;;;;;;;;107033;1276;24273;-77
2023/05/28 00:47:27;;;;;;;23.40;9.00;;;;;;;;;;107023;1276;24186;-83
2023/05/28 00:50:16;;;;;;;22.20;8.80;;;;;;;;;;106845;1260;22489;-83
2023/05/28 00:53:08;;;;;;;20.50;9.70;;;;;;;;;;106894;1275;25593;-83
2023/05/28 00:55:36;;;;;;;19.70;9.40;;;;;;;;;;106931;1275;22521;-81
2023/05/28 00:58:13;;;;;;;19.20;8.10;;;;;;;;;;106857;1275;22527;-76
2023/05/28 01:01:00;;;;;;;19.70;8.60;;;;;;;;;;106881;1259;25459;-84
2023/05/28 01:03:27;;;;;;;18.60;6.80;;;;;;;;;;107128;1275;22522;-80
2023/05/28 01:05:56;;;;;;;17.60;6.90;;;;;;;;;;106990;1275;23206;-83
2023/05/28 01:08:43;;;;;;;14.20;6.40;;;;;;;;;;106879;1252;24208;-83
2023/05/28 01:11:12;;;;;;;15.10;6.30;;;;;;;;;;106852;1273;26674;-81
2023/05/28 01:13:43;;;;;;;14.10;6.40;;;;;;;;;;106889;1276;24177;-83
2023/05/28 01:16:10;;;;;;;17.00;7.10;;;;;;;;;;107043;1276;25223;-78
2023/05/28 01:18:39;;;;;;;18.00;7.50;;;;;;;;;;107006;1276;24333;-80
2023/05/28 01:21:06;;;;;;;14.60;6.80;;;;;;;;;;106904;1261;25356;-77
2023/05/28 01:23:42;;;;;;;16.20;7.50;;;;;;;;;;107015;1276;25258;-80
2023/05/28 01:26:16;;;;;;;17.30;7.30;;;;;;;;;;107073;1276;22520;-77
2023/05/28 01:28:44;;;;;;;14.80;6.90;;;;;;;;;;106998;1276;22536;-84
2023/05/28 01:31:15;;;;;;;18.70;7.00;;;;;;;;;;106975;1276;22559;-80
2023/05/28 01:33:45;;;;;;;15.90;6.30;;;;;;;;;;107011;1276;23873;-81
2023/05/28 01:36:17;;;;;;;15.60;6.10;;;;;;;;;;106893;1276;25406;-81
2023/05/28 01:38:46;;;;;;;16.60;6.40;;;;;;;;;;107021;1276;25312;-78
2023/05/28 01:41:14;;;;;;;16.20;7.00;;;;;;;;;;106896;1264;24252;-81
2023/05/28 01:43:45;;;;;;;16.10;7.30;;;;;;;;;;107115;1276;23000;-83
2023/05/28 01:46:15;;;;;;;15.40;6.80;;;;;;;;;;107066;1276;25481;-81
2023/05/28 01:48:42;;;;;;;18.20;7.80;;;;;;;;;;107017;1275;22527;-85
2023/05/28 01:51:10;;;;;;;18.20;7.60;;;;;;;;;;106860;1260;22516;-78
2023/05/28 01:53:39;;;;;;;16.20;7.30;;;;;;;;;;107028;1276;25475;-79
2023/05/28 01:56:08;;;;;;;18.20;8.00;;;;;;;;;;107002;1276;25334;-76
2023/05/28 01:58:35;;;;;;;17.30;7.10;;;;;;;;;;106793;1276;22527;-83
2023/05/28 02:01:09;;;;;;;16.70;6.50;;;;;;;;;;106966;1264;22514;-79
2023/05/28 02:03:36;;;;;;;19.80;7.20;;;;;;;;;;106884;1264;22524;-82
2023/05/28 02:06:03;;;;;;;15.70;6.80;;;;;;;;;;107017;1276;25233;-77
2023/05/28 02:08:30;;;;;;;16.30;6.70;;;;;;;;;;106894;1276;22514;-83
2023/05/28 02:10:57;;;;;;;19.30;6.80;;;;;;;;;;106988;1254;25340;-77
2023/05/28 02:13:27;;;;;;;16.80;6.90;;;;;;;;;;106884;1276;22649;-80
2023/05/28 02:15:55;;;;;;;13.70;6.50;;;;;;;;;;106904;1276;22582;-81
2023/05/28 02:18:22;;;;;;;17.90;6.90;;;;;;;;;;107028;1276;22517;-78
2023/05/28 02:20:49;;;;;;;13.10;6.50;;;;;;;;;;106890;1276;25638;-76
2023/05/28 02:23:16;;;;;;;19.00;7.80;;;;;;;;;;106866;1276;25356;-80
2023/05/28 02:25:43;;;;;;;16.60;6.30;;;;;;;;;;106851;1276;24185;-83
2023/05/28 02:28:11;;;;;;;15.60;6.10;;;;;;;;;;106895;1276;25331;-76
2023/05/28 02:30:40;;;;;;;15.20;6.10;;;;;;;;;;106864;1276;24371;-83
2023/05/28 02:33:08;;;;;;;11.70;4.30;;;;;;;;;;107093;1266;24219;-78
2023/05/28 02:35:35;;;;;;;15.00;5.70;;;;;;;;;;106999;1274;22527;-83
2023/05/28 02:38:05;;;;;;;13.70;5.60;;;;;;;;;;107115;1275;22630;-84
2023/05/28 02:40:32;;;;;;;15.30;5.20;;;;;;;;;;106922;1275;22637;-81
2023/05/28 02:42:59;;;;;;;12.40;5.50;;;;;;;;;;106855;1264;24192;-78
2023/05/28 02:45:27;;;;;;;13.60;5.60;;;;;;;;;;107024;1276;24254;-79
2023/05/28 02:47:54;;;;;;;15.80;5.60;;;;;;;;;;106899;1276;22527;-79
2023/05/28 02:50:22;;;;;;;14.50;6.10;;;;;;;;;;107047;1276;24279;-81
2023/05/28 02:52:59;;;;;;;13.20;4.90;;;;;;;;;;106913;1268;25390;-78
2023/05/28 02:55:26;;;;;;;12.90;5.30;;;;;;;;;;106835;1276;21769;-84
2023/05/28 02:57:52;;;;;;;11.70;4.90;;;;;;;;;;106918;1276;22527;-81
2023/05/28 03:00:20;;;;;;;13.90;5.70;;;;;;;;;;106856;1276;25284;-78
2023/05/28 03:02:47;;;;;;;14.60;5.70;;;;;;;;;;106890;1263;22588;-77
2023/05/28 03:05:15;;;;;;;15.40;6.00;;;;;;;;;;106920;1275;24173;-78
2023/05/28 03:07:42;;;;;;;14.80;6.60;;;;;;;;;;106947;1275;25220;-79
2023/05/28 03:10:29;;;;;;;14.40;5.90;;;;;;;;;;106904;1275;25220;-79
2023/05/28 03:12:56;;;;;;;15.60;6.20;;;;;;;;;;106874;1270;22537;-88
2023/05/28 03:15:26;;;;;;;15.40;6.00;;;;;;;;;;106930;1276;22590;-82
2023/05/28 03:17:54;;;;;;;14.80;5.70;;;;;;;;;;107029;1276;25551;-81
2023/05/28 03:20:23;;;;;;;15.70;6.20;;;;;;;;;;106912;1276;25198;-77
2023/05/28 03:22:54;;;;;;;15.90;6.30;;;;;;;;;;106889;1261;22731;-84
2023/05/28 03:25:22;;;;;;;14.20;6.50;;;;;;;;;;106906;1275;24260;-82
2023/05/28 03:27:49;;;;;;;15.10;5.90;;;;;;;;;;107112;1275;25430;-80
2023/05/28 03:30:16;;;;;;;13.70;6.00;;;;;;;;;;106866;1275;22529;-82
2023/05/28 03:32:49;;;;;;;17.00;6.70;;;;;;;;;;106993;1276;25292;-81
2023/05/28 03:35:16;;;;;;;16.80;6.70;;;;;;;;;;107021;1252;22534;-83
2023/05/28 03:37:44;;;;;;;16.10;6.40;;;;;;;;;;106832;1276;22965;-81
2023/05/28 03:40:14;;;;;;;16.50;6.40;;;;;;;;;;106903;1276;25291;-78
2023/05/28 03:42:44;;;;;;;16.90;6.50;;;;;;;;;;106742;1261;22527;-82
2023/05/28 03:45:15;;;;;;;14.90;5.60;;;;;;;;;;106958;1276;22782;-80
2023/05/28 03:48:05;;;;;;;15.70;6.50;;;;;;;;;;106965;1276;22573;-79
2023/05/28 03:50:32;;;;;;;13.50;5.80;;;;;;;;;;106922;1276;25258;-81
2023/05/28 03:53:01;;;;;;;13.80;6.30;;;;;;;;;;106943;1254;25374;-77
2023/05/28 03:55:31;;;;;;;14.30;6.60;;;;;;;;;;106834;1276;22546;-80
2023/05/28 03:57:58;;;;;;;14.20;6.70;;;;;;;;;;106844;1276;22685;-84
2023/05/28 04:00:25;;;;;;;15.60;6.60;;;;;;;;;;106860;1276;22646;-80
2023/05/28 04:02:52;;;;;;;16.70;6.70;;;;;;;;;;106870;1267;23905;-77
2023/05/28 04:05:19;;;;;;;21.10;8.30;;;;;;;;;;106928;1267;25560;-78
2023/05/28 04:07:46;;;;;;;23.30;8.60;;;;;;;;;;107038;1276;25388;-81
2023/05/28 04:10:13;;;;;;;18.80;8.60;;;;;;;;;;106912;1276;24493;-81
2023/05/28 04:12:40;;;;;;;17.40;7.70;;;;;;;;;;106899;1276;25260;-78
2023/05/28 04:15:10;;;;;;;21.90;7.70;;;;;;;;;;106879;1259;24357;-78
2023/05/28 04:17:38;;;;;;;15.30;7.20;;;;;;;;;;106886;1267;22654;-84
2023/05/28 04:20:09;;;;;;;19.70;7.80;;;;;;;;;;106919;1276;25319;-81
2023/05/28 04:22:36;;;;;;;17.50;8.00;;;;;;;;;;106905;1276;25389;-81
2023/05/28 04:25:03;;;;;;;16.30;7.60;;;;;;;;;;106926;1266;22530;-81
2023/05/28 04:27:51;;;;;;;16.00;7.10;;;;;;;;;;106898;1276;22518;-78
2023/05/28 04:30:22;;;;;;;15.40;6.60;;;;;;;;;;106990;1276;24256;-83
2023/05/28 04:32:52;;;;;;;18.30;7.60;;;;;;;;;;106989;1276;25306;-78
2023/05/28 04:35:19;;;;;;;19.40;7.90;;;;;;;;;;106935;1257;22502;-84
2023/05/28 04:37:50;;;;;;;16.60;8.00;;;;;;;;;;106867;1276;22564;-81
2023/05/28 04:40:18;;;;;;;17.80;7.80;;;;;;;;;;106900;1276;25488;-84
2023/05/28 04:42:47;;;;;;;18.10;7.40;;;;;;;;;;107112;1274;22536;-83
2023/05/28 04:45:14;;;;;;;17.00;7.50;;;;;;;;;;107116;1274;24187;-79
2023/05/28 04:47:44;;;;;;;13.80;5.90;;;;;;;;;;107179;1274;25226;-81
2023/05/28 04:50:15;;;;;;;16.70;6.10;;;;;;;;;;107161;1274;24359;-79
2023/05/28 04:52:42;;;;;;;15.30;5.60;;;;;;;;;;107173;1254;22671;-78
2023/05/28 04:55:09;;;;;;;14.00;6.00;;;;;;;;;;107096;1258;24387;-82
2023/05/28 04:57:36;;;;;;;13.50;6.20;;;;;;;;;;107119;1274;22531;-81
2023/05/28 05:00:03;;;;;;;16.20;6.30;;;;;;;;;;107130;1274;24162;-84
2023/05/28 05:02:31;;;;;;;14.60;5.70;;;;;;;;;;107121;1274;22996;-77
2023/05/28 05:04:59;;;;;;;13.60;5.60;;;;;;;;;;110671;1251;22219;-78
2023/05/28 05:07:26;;;;;;;16.20;6.60;;;;;;;;;;110684;1251;22161;-78
2023/05/28 05:09:52;;;;;;;14.50;6.20;;;;;;;;;;110632;1274;22198;-78
2023/05/28 05:12:20;;;;;;;19.70;6.70;;;;;;;;;;110662;1274;22971;-78
2023/05/28 05:14:47;;;;;;;16.50;7.40;;;;;;;;;;110610;1251;22316;-78
2023/05/28 05:17:14;;;;;;;15.50;6.30;;;;;;;;;;110528;1274;22168;-78
2023/05/28 05:19:41;;;;;;;17.80;6.60;;;;;;;;;;110590;1274;22190;-79
2023/05/28 05:22:08;;;;;;;20.40;8.20;;;;;;;;;;110551;1274;22189;-78
2023/05/28 05:24:36;;;;;;;21.30;10.30;;;;;;;;;;110557;1274;22048;-79
2023/05/28 05:27:02;;;;;;;16.50;7.80;;;;;;;;;;110661;1254;22273;-78
2023/05/28 05:29:29;;;;;;;17.50;7.60;;;;;;;;;;110630;1274;22900;-78
2023/05/28 05:31:56;;;;;;;17.80;7.40;;;;;;;;;;110658;1274;23074;-78
2023/05/28 05:34:23;;;;;;;19.60;9.70;;;;;;;;;;110587;1273;22334;-76
2023/05/28 05:37:18;;;;;;;16.10;7.40;;;;;;;;;;110320;1260;22308;-75
2023/05/28 05:39:59;;;;;;;16.00;7.50;;;;;;;;;;110678;1273;22113;-75
2023/05/28 05:42:49;;;;;;;15.20;6.60;;;;;;;;;;110592;1273;22508;-75
2023/05/28 05:45:15;;;;;;;14.20;6.10;;;;;;;;;;110619;1274;22386;-76
2023/05/28 05:47:42;;;;;;;16.40;6.80;;;;;;;;;;110657;1256;22121;-77
2023/05/28 05:50:13;;;;;;;13.30;6.30;;;;;;;;;;110649;1274;21925;-76
2023/05/28 05:52:40;;;;;;;16.30;7.10;;;;;;;;;;110645;1274;22817;-77
2023/05/28 05:55:08;;;;;;;15.40;6.80;;;;;;;;;;110562;1274;22129;-77
2023/05/28 05:57:36;;;;;;;14.80;6.10;;;;;;;;;;110967;1256;22871;-76
2023/05/28 06:00:05;;;;;;;14.90;6.00;;;;;;;;;;110637;1274;22112;-76
2023/05/28 06:02:41;;;;;;;15.00;6.00;;;;;;;;;;110611;1274;22108;-77
2023/05/28 06:05:27;;;;;;;14.00;5.90;;;;;;;;;;110665;1274;21976;-76
2023/05/28 06:08:23;;;;;;;12.60;5.60;;;;;;;;;;110233;1258;22327;-77
2023/05/28 06:11:25;;;;;;;13.00;5.40;;;;;;;;;;110542;1274;22163;-76
2023/05/28 06:13:52;;;;;;;12.10;5.50;;;;;;;;;;110627;1274;22236;-77
2023/05/28 06:16:19;;;;;;;11.70;5.50;;;;;;;;;;110628;1274;22330;-77
2023/05/28 06:18:46;;;;;;;12.30;5.40;;;;;;;;;;110525;1257;22124;-76
2023/05/28 06:21:13;;;;;;;11.70;5.50;;;;;;;;;;110627;1274;22117;-76
2023/05/28 06:23:40;;;;;;;10.60;5.00;;;;;;;;;;110457;1274;22097;-76
2023/05/28 06:26:07;;;;;;;11.30;5.60;;;;;;;;;;110672;1274;22201;-76
2023/05/28 06:28:34;;;;;;;12.00;5.80;;;;;;;;;;110965;1251;22103;-76
2023/05/28 06:31:02;;;;;;;11.20;5.00;;;;;;;;;;110657;1274;22222;-76
2023/05/28 06:33:29;;;;;;;12.90;5.20;;;;;;;;;;110464;1274;22353;-76
2023/05/28 06:35:57;;;;;;;13.30;5.60;;;;;;;;;;110571;1274;22107;-76
2023/05/28 06:38:23;;;;;;;12.90;5.20;;;;;;;;;;110658;1253;22849;-76
2023/05/28 06:40:50;;;;;;;11.90;5.20;;;;;;;;;;110653;1274;22697;-78
2023/05/28 06:43:18;;;;;;;12.60;4.90;;;;;;;;;;110526;1274;22485;-77
2023/05/28 06:45:59;;;;;;;11.10;5.20;;;;;;;;;;110653;1274;23030;-77
2023/05/28 06:48:26;;;;;;;12.90;5.30;;;;;;;;;;110990;1256;22188;-76
2023/05/28 06:50:53;;;;;;;11.50;5.00;;;;;;;;;;110623;1274;22100;-77
2023/05/28 06:53:20;;;;;;;10.60;4.60;;;;;;;;;;110617;1274;22793;-78
2023/05/28 06:55:47;;;;;;;10.50;4.60;;;;;;;;;;110594;1274;22225;-77
2023/05/28 06:58:32;;;;;;;9.80;4.20;;;;;;;;;;110878;1255;22814;-77
2023/05/28 07:01:08;;;;;;;12.00;4.70;;;;;;;;;;110605;1275;22129;-78
2023/05/28 07:03:48;;;;;;;12.40;4.90;;;;;;;;;;110402;1275;22725;-78
2023/05/28 07:06:24;;;;;;;13.30;5.30;;;;;;;;;;110629;1275;23064;-77
2023/05/28 07:08:51;;;;;;;9.30;4.50;;;;;;;;;;111019;1256;22063;-77
2023/05/28 07:11:17;;;;;;;10.10;4.70;;;;;;;;;;110579;1274;22102;-77
2023/05/28 07:13:46;;;;;;;10.50;4.10;;;;;;;;;;110614;1274;22260;-77
2023/05/28 07:16:13;;;;;;;11.40;4.70;;;;;;;;;;110655;1274;22123;-77
2023/05/28 07:18:40;;;;;;;11.80;4.80;;;;;;;;;;110775;1259;22191;-77
2023/05/28 07:21:07;;;;;;;11.70;5.00;;;;;;;;;;110603;1275;22138;-78
2023/05/28 07:23:39;;;;;;;9.90;4.80;;;;;;;;;;110638;1275;22116;-77
2023/05/28 07:26:06;;;;;;;14.20;5.00;;;;;;;;;;110476;1275;22106;-77
2023/05/28 07:28:34;;;;;;;11.30;5.20;;;;;;;;;;110802;1250;22114;-77
2023/05/28 07:31:01;;;;;;;11.60;4.80;;;;;;;;;;110636;1274;21742;-75
2023/05/28 07:33:28;;;;;;;11.60;4.90;;;;;;;;;;110650;1274;22843;-77
2023/05/28 07:35:54;;;;;;;13.70;5.10;;;;;;;;;;110578;1274;22829;-77
2023/05/28 07:38:21;;;;;;;10.70;4.70;;;;;;;;;;110647;1253;22121;-76
2023/05/28 07:40:50;;;;;;;13.70;6.50;;;;;;;;;;110628;1275;22087;-76
2023/05/28 07:43:37;;;;;;;13.10;5.30;;;;;;;;;;110493;1264;22126;-78
2023/05/28 07:46:09;;;;;;;11.50;5.50;;;;;;;;;;110616;1275;22122;-77
2023/05/28 07:48:43;;;;;;;16.00;5.90;;;;;;;;;;110728;1252;22703;-77
2023/05/28 07:51:17;;;;;;;11.80;5.00;;;;;;;;;;110648;1274;22199;-77
2023/05/28 07:53:58;;;;;;;14.90;5.10;;;;;;;;;;110634;1274;22732;-77
2023/05/28 07:56:26;;;;;;;11.80;5.00;;;;;;;;;;110646;1274;22154;-76
2023/05/28 07:59:02;;;;;;;15.20;6.10;;;;;;;;;;110635;1257;22139;-76
2023/05/28 08:01:30;;;;;;;12.60;5.40;;;;;;;;;;110576;1276;22148;-76
2023/05/28 08:03:57;;;;;;;13.80;5.70;;;;;;;;;;110609;1275;22218;-77
2023/05/28 08:06:31;;;;;;;13.00;5.50;;;;;;;;;;110599;1275;22973;-76
2023/05/28 08:08:58;;;;;;;12.90;5.40;;;;;;;;;;110515;1251;22176;-78
2023/05/28 08:11:25;;;;;;;11.70;5.30;;;;;;;;;;110659;1274;22167;-77
2023/05/28 08:13:52;;;;;;;14.40;5.10;;;;;;;;;;110644;1272;22098;-76
2023/05/28 08:16:19;;;;;;;14.60;5.40;;;;;;;;;;110662;1274;22139;-77
2023/05/28 08:19:07;;;;;;;13.40;6.30;;;;;;;;;;110572;1253;22173;-76
2023/05/28 08:21:35;;;;;;;15.80;7.30;;;;;;;;;;110567;1275;22187;-76
2023/05/28 08:24:02;;;;;;;12.30;6.00;;;;;;;;;;110594;1276;22128;-78
2023/05/28 08:26:33;;;;;;;14.10;6.10;;;;;;;;;;110443;1275;22276;-76
2023/05/28 08:29:01;;;;;;;14.10;6.50;;;;;;;;;;110614;1251;22489;-76
2023/05/28 08:31:29;;;;;;;13.40;6.90;;;;;;;;;;110549;1274;22582;-77
2023/05/28 08:34:15;;;;;;;13.60;5.60;;;;;;;;;;110606;1274;22077;-77
2023/05/28 08:36:43;;;;;;;10.50;5.40;;;;;;;;;;110657;1274;22922;-77
2023/05/28 08:39:13;;;;;;;11.50;5.60;;;;;;;;;;110614;1253;22641;-77
2023/05/28 08:41:42;;;;;;;12.60;6.10;;;;;;;;;;110309;1275;22089;-76
2023/05/28 08:44:10;;;;;;;11.50;5.60;;;;;;;;;;110596;1276;22122;-78
2023/05/28 08:46:39;;;;;;;12.50;5.80;;;;;;;;;;110557;1276;22110;-77
2023/05/28 08:49:20;;;;;;;10.90;4.70;;;;;;;;;;110472;1275;22381;-77
2023/05/28 08:51:49;;;;;;;12.00;4.80;;;;;;;;;;110386;1256;22290;-76
2023/05/28 08:54:17;;;;;;;12.00;4.80;;;;;;;;;;110503;1275;22963;-76
2023/05/28 08:56:44;;;;;;;12.50;4.70;;;;;;;;;;110477;1275;22114;-76
2023/05/28 08:59:12;;;;;;;9.40;4.30;;;;;;;;;;108209;1275;3146968;-77
2023/05/28 09:01:39;;;;;;;11.10;4.50;;;;;;;;;;110465;1259;22814;-77
2023/05/28 09:04:09;;;;;;;11.30;4.00;;;;;;;;;;110510;1276;22055;-77
2023/05/28 09:10:39;;;;;;;10.50;4.20;;;;;;;;;;110043;1262;22264;-76
2023/05/28 09:13:06;;;;;;;10.30;4.30;;;;;;;;;;110008;1282;22328;-77
2023/05/28 09:15:35;;;;;;;11.10;4.30;;;;;;;;;;110003;1282;22854;-76
2023/05/28 09:18:06;;;;;;;10.70;4.30;;;;;;;;;;109987;1276;22212;-76
2023/05/28 09:20:34;;;;;;;10.10;3.70;;;;;;;;;;110039;1261;22958;-76
2023/05/28 09:23:06;;;;;;;10.10;3.90;;;;;;;;;;110014;1282;22154;-77
2023/05/28 09:26:00;;;;;;;8.40;3.60;;;;;;;;;;110036;1282;22398;-76
2023/05/28 09:28:32;;;;;;;6.70;3.30;;;;;;;;;;110029;1282;22295;-75
2023/05/28 09:31:17;;;;;;;9.60;3.20;;;;;;;;;;110131;1260;22410;-76
2023/05/28 09:33:45;;;;;;;7.80;3.20;;;;;;;;;;110067;1282;22197;-78
2023/05/28 09:40:09;;;;;;;11.40;3.60;;;;;;;;;;110061;1282;22165;-75
2023/05/28 09:42:42;;;;;;;11.90;4.10;;;;;;;;;;110389;1262;22198;-75
2023/05/28 09:45:10;;;;;;;10.00;3.40;;;;;;;;;;110018;1282;22282;-76
2023/05/28 09:47:43;;;;;;;7.80;3.40;;;;;;;;;;110512;1275;22096;-75
2023/05/28 09:50:11;;;;;;;8.70;3.40;;;;;;;;;;110503;1275;22314;-75
2023/05/28 09:52:39;;;;;;;8.70;3.10;;;;;;;;;;110817;1257;22204;-75
2023/05/28 09:55:07;;;;;;;7.00;2.60;;;;;;;;;;110595;1275;22003;-74
2023/05/28 09:57:35;;;;;;;6.00;2.40;;;;;;;;;;110455;1276;22119;-75
2023/05/28 10:00:14;;;;;;;7.60;2.90;;;;;;;;;;110437;1276;22124;-75
2023/05/28 10:02:55;;;;;;;7.70;2.10;;;;;;;;;;110782;1256;22201;-75
2023/05/28 10:05:25;;;;;;;7.30;2.30;;;;;;;;;;110619;1275;22119;-74
2023/05/28 10:07:52;;;;;;;5.20;2.00;;;;;;;;;;110599;1275;22070;-75
2023/05/28 10:10:20;;;;;;;12.90;7.30;;;;;;;;;;110649;1275;22090;-75
2023/05/28 10:12:48;;;;;;;11.80;3.70;;;;;;;;;;110834;1268;22864;-75
2023/05/28 10:15:16;;;;;;;10.20;5.10;;;;;;;;;;110473;1276;22851;-76
2023/05/28 10:17:44;;;;;;;8.60;3.10;;;;;;;;;;110606;1275;22115;-75
2023/05/28 10:20:12;;;;;;;6.70;2.50;;;;;;;;;;110504;1276;22285;-76
2023/05/28 10:22:39;;;;;;;7.20;2.40;;;;;;;;;;110794;1258;22909;-75
2023/05/28 10:25:08;;;;;;;7.30;2.10;;;;;;;;;;110629;1275;22997;-75
2023/05/28 10:27:36;;;;;;;6.80;2.60;;;;;;;;;;110612;1275;22099;-75
2023/05/28 10:30:03;;;;;;;10.90;5.20;;;;;;;;;;110615;1275;22913;-75
2023/05/28 10:32:42;;;;;;;6.80;2.60;;;;;;;;;;110508;1258;23004;-75
2023/05/28 10:35:11;;;;;;;6.50;2.40;;;;;;;;;;110463;1276;22103;-75
2023/05/28 10:41:33;;;;;;;8.80;3.00;;;;;;;;;;110498;1276;22365;-76
2023/05/28 10:44:07;;;;;;;7.40;2.80;;;;;;;;;;110494;1255;22109;-76
2023/05/28 10:46:38;;;;;;;6.60;2.70;;;;;;;;;;110593;1276;22830;-75
2023/05/28 10:49:08;;;;;;;6.30;2.30;;;;;;;;;;110604;1275;22251;-76
2023/05/28 10:51:50;;;;;;;7.10;2.60;;;;;;;;;;110467;1275;22122;-75
2023/05/28 10:54:32;;;;;;;6.20;2.30;;;;;;;;;;110657;1256;22118;-75
2023/05/28 10:57:05;;;;;;;7.10;2.60;;;;;;;;;;110608;1275;22093;-76
2023/05/28 10:59:47;;;;;;;7.70;2.20;;;;;;;;;;110610;1275;22783;-76
2023/05/28 11:02:18;;;;;;;7.60;2.20;;;;;;;;;;110572;1261;22364;-75
2023/05/28 11:04:45;;;;;;;5.70;1.90;;;;;;;;;;110750;1256;22130;-76
2023/05/28 11:07:12;;;;;;;5.90;2.30;;;;;;;;;;110490;1276;22104;-75
2023/05/28 11:09:40;;;;;;;7.10;2.40;;;;;;;;;;110454;1275;22109;-76
2023/05/28 11:12:07;;;;;;;7.40;2.00;;;;;;;;;;110364;1275;22129;-75
2023/05/28 11:14:35;;;;;;;7.80;2.90;;;;;;;;;;110960;1254;22171;-76
2023/05/28 11:17:15;;;;;;;9.20;2.70;;;;;;;;;;110482;1275;22829;-76
2023/05/28 11:19:43;;;;;;;6.80;2.30;;;;;;;;;;110481;1276;22108;-75
2023/05/28 11:22:10;;;;;;;7.20;2.10;;;;;;;;;;110467;1275;22157;-75
2023/05/28 11:24:58;;;;;;;6.50;2.20;;;;;;;;;;110728;1259;22109;-74
2023/05/28 11:27:26;;;;;;;5.70;2.00;;;;;;;;;;110609;1276;22172;-75
2023/05/28 11:29:54;;;;;;;7.80;2.10;;;;;;;;;;110627;1275;22131;-75
2023/05/28 11:32:22;;;;;;;8.30;2.30;;;;;;;;;;110597;1276;22125;-75
2023/05/28 11:34:50;;;;;;;7.70;2.60;;;;;;;;;;110864;1257;22866;-75
2023/05/28 11:37:37;;;;;;;7.00;2.40;;;;;;;;;;110578;1275;22113;-75
2023/05/28 11:40:11;;;;;;;6.80;2.10;;;;;;;;;;110593;1275;22104;-75
2023/05/28 11:42:40;;;;;;;7.30;2.30;;;;;;;;;;110476;1276;22833;-74
2023/05/28 11:45:07;;;;;;;7.50;2.30;;;;;;;;;;110763;1260;22102;-74
2023/05/28 11:47:35;;;;;;;8.10;2.00;;;;;;;;;;110488;1276;22841;-75
2023/05/28 11:50:07;;;;;;;6.80;1.90;;;;;;;;;;110598;1276;22083;-75
2023/05/28 11:52:34;;;;;;;7.40;2.40;;;;;;;;;;110475;1276;22111;-75
2023/05/28 11:55:02;;;;;;;8.10;2.20;;;;;;;;;;110749;1260;22209;-75
2023/05/28 11:57:33;;;;;;;8.20;2.50;;;;;;;;;;110485;1276;22742;-74
2023/05/28 12:00:00;;;;;;;8.30;2.30;;;;;;;;;;110501;1275;22112;-74
2023/05/28 12:02:28;;;;;;;6.10;2.10;;;;;;;;;;110390;1276;22114;-75
2023/05/28 12:04:59;;;;;;;6.70;2.00;;;;;;;;;;110896;1254;22960;-74
2023/05/28 12:07:32;;;;;;;6.50;2.50;;;;;;;;;;110477;1276;22945;-74
2023/05/28 12:10:05;;;;;;;6.60;2.70;;;;;;;;;;110576;1275;22162;-73
2023/05/28 12:12:33;;;;;;;6.30;2.30;;;;;;;;;;110612;1275;22090;-74
2023/05/28 12:15:03;;;;;;;5.80;2.10;;;;;;;;;;110824;1256;22148;-74
2023/05/28 12:17:40;;;;;;;4.30;2.10;;;;;;;;;;110621;1276;22108;-75
2023/05/28 12:20:12;;;;;;;5.90;2.10;;;;;;;;;;110602;1276;22132;-74
2023/05/28 12:22:40;;;;;;;8.40;2.20;;;;;;;;;;110617;1275;22087;-74
2023/05/28 12:25:07;;;;;;;7.80;2.90;;;;;;;;;;110814;1256;22145;-74
2023/05/28 12:27:35;;;;;;;6.30;2.40;;;;;;;;;;110607;1275;22128;-74
2023/05/28 12:30:02;;;;;;;7.00;2.50;;;;;;;;;;110593;1275;22117;-74
2023/05/28 12:32:29;;;;;;;6.50;2.50;;;;;;;;;;110360;1276;22104;-74
2023/05/28 12:34:57;;;;;;;40.00;19.30;;;;;;;;;;110698;1257;22301;-74
2023/05/28 12:37:28;;;;;;;19.20;8.80;;;;;;;;;;110611;1276;22138;-74
2023/05/28 12:39:55;;;;;;;11.10;4.70;;;;;;;;;;110619;1276;22077;-74
2023/05/28 12:42:22;;;;;;;7.10;2.90;;;;;;;;;;110345;1276;22148;-74
2023/05/28 12:44:49;;;;;;;7.60;3.00;;;;;;;;;;110672;1254;22165;-75
2023/05/28 12:47:17;;;;;;;8.40;2.80;;;;;;;;;;110601;1276;22314;-75
2023/05/28 12:49:45;;;;;;;11.00;4.10;;;;;;;;;;110621;1276;22141;-76
2023/05/28 12:52:12;;;;;;;6.20;2.50;;;;;;;;;;110465;1276;22318;-75
2023/05/28 12:54:40;;;;;;;4.60;1.70;;;;;;;;;;110642;1254;22166;-75
2023/05/28 12:57:08;;;;;;;5.80;1.90;;;;;;;;;;110470;1276;22104;-74
2023/05/28 12:59:36;;;;;;;5.90;1.90;;;;;;;;;;110641;1276;22739;-74
2023/05/28 13:02:03;;;;;;;7.80;2.90;;;;;;;;;;110635;1275;22165;-75
2023/05/28 13:04:30;;;;;;;6.10;2.00;;;;;;;;;;110485;1276;22121;-76
2023/05/28 13:06:58;;;;;;;5.50;2.20;;;;;;;;;;110797;1256;22111;-78
2023/05/28 13:09:25;;;;;;;6.80;2.00;;;;;;;;;;110500;1276;22715;-75
2023/05/28 13:11:55;;;;;;;4.50;1.80;;;;;;;;;;110479;1276;22116;-76
2023/05/28 13:14:22;;;;;;;7.00;2.60;;;;;;;;;;110319;1276;22042;-76
2023/05/28 13:16:50;;;;;;;6.40;2.20;;;;;;;;;;110752;1254;22135;-75
2023/05/28 13:19:17;;;;;;;4.70;1.90;;;;;;;;;;110618;1276;22243;-75
2023/05/28 13:21:45;;;;;;;7.10;2.30;;;;;;;;;;110628;1276;22803;-75
2023/05/28 13:24:13;;;;;;;6.10;2.70;;;;;;;;;;110612;1276;22091;-76
2023/05/28 13:26:42;;;;;;;8.20;2.60;;;;;;;;;;110949;1256;22118;-76
2023/05/28 13:29:10;;;;;;;8.80;2.10;;;;;;;;;;110286;1276;22086;-75
2023/05/28 13:31:38;;;;;;;6.20;2.20;;;;;;;;;;110468;1276;22090;-76
2023/05/28 13:34:06;;;;;;;8.30;2.50;;;;;;;;;;110631;1276;22096;-75
2023/05/28 13:36:34;;;;;;;5.60;2.50;;;;;;;;;;110478;1260;22061;-76
2023/05/28 13:39:04;;;;;;;7.20;3.00;;;;;;;;;;110516;1276;22327;-75
2023/05/28 13:41:31;;;;;;;7.90;2.80;;;;;;;;;;110314;1276;22126;-76
2023/05/28 13:44:01;;;;;;;6.50;2.40;;;;;;;;;;110298;1276;22420;-77
2023/05/28 13:46:29;;;;;;;5.80;2.00;;;;;;;;;;110546;1259;22101;-75
2023/05/28 13:48:58;;;;;;;6.60;2.50;;;;;;;;;;110409;1276;22377;-86
2023/05/28 13:51:27;;;;;;;6.90;2.20;;;;;;;;;;110399;1276;22142;-76
2023/05/28 13:53:56;;;;;;;6.00;2.00;;;;;;;;;;110381;1276;22468;-77
2023/05/28 13:56:26;;;;;;;6.80;2.40;;;;;;;;;;110506;1260;22121;-76
2023/05/28 13:58:55;;;;;;;5.50;1.90;;;;;;;;;;110326;1276;22383;-76
2023/05/28 14:01:25;;;;;;;5.80;2.10;;;;;;;;;;110282;1276;22212;-75
2023/05/28 14:03:54;;;;;;;6.80;2.40;;;;;;;;;;110380;1276;22088;-74
2023/05/28 14:06:24;;;;;;;5.40;2.10;;;;;;;;;;110562;1256;22105;-76
2023/05/28 14:08:53;;;;;;;7.30;2.50;;;;;;;;;;110403;1276;22105;-76
2023/05/28 14:11:22;;;;;;;6.20;2.20;;;;;;;;;;110362;1276;22115;-75
2023/05/28 14:13:51;;;;;;;7.40;2.70;;;;;;;;;;110409;1276;22188;-75
2023/05/28 14:16:21;;;;;;;6.30;2.30;;;;;;;;;;110343;1253;22155;-75
2023/05/28 14:18:49;;;;;;;6.50;2.10;;;;;;;;;;110377;1276;22765;-75
2023/05/28 14:21:18;;;;;;;7.30;2.50;;;;;;;;;;110606;1276;22120;-76
2023/05/28 14:23:46;;;;;;;6.20;2.20;;;;;;;;;;110602;1276;22090;-76
2023/05/28 14:26:15;;;;;;;9.20;3.30;;;;;;;;;;110538;1276;22300;-77
2023/05/28 14:28:44;;;;;;;9.10;3.90;;;;;;;;;;110666;1262;22194;-76
2023/05/28 14:31:13;;;;;;;9.20;2.70;;;;;;;;;;110366;1276;22192;-77
2023/05/28 14:33:42;;;;;;;6.40;2.30;;;;;;;;;;110255;1276;22301;-76
2023/05/28 14:36:11;;;;;;;6.80;2.10;;;;;;;;;;110599;1276;22102;-77
2023/05/28 14:38:40;;;;;;;6.70;2.80;;;;;;;;;;110854;1259;22207;-76
2023/05/28 14:41:09;;;;;;;5.70;1.80;;;;;;;;;;110635;1276;23260;-76
2023/05/28 14:43:38;;;;;;;6.70;2.20;;;;;;;;;;110248;1276;23127;-76
2023/05/28 14:53:01;;;;;;;6.70;2.70;;;;;;;;;;103840;1294;544843;-76
2023/05/28 14:55:28;;;;;;;11.20;5.40;;;;;;;;;;105992;1288;22536;-79
2023/05/28 14:57:55;;;;;;;9.60;3.20;;;;;;;;;;106028;1288;22536;-77
2023/05/28 15:00:22;;;;;;;9.10;2.80;;;;;;;;;;106126;1288;22541;-83